createdAt,value
2019-05-19T00:00:13.000Z,19.67
2019-05-19T00:01:13.000Z,19.66
2019-05-19T00:02:13.000Z,19.66
2019-05-19T00:03:13.000Z,19.67
2019-05-19T00:04:13.000Z,19.66
2019-05-19T00:05:13.000Z,19.66
2019-05-19T00:06:13.000Z,19.65
2019-05-19T00:07:13.000Z,19.66
2019-05-19T00:08:13.000Z,19.65
2019-05-19T00:09:13.000Z,19.65
2019-05-19T00:10:13.000Z,19.65
2019-05-19T00:11:13.000Z,19.64
2019-05-19T00:12:13.000Z,19.66
2019-05-19T00:13:13.000Z,19.65
2019-05-19T00:14:13.000Z,19.64
2019-05-19T00:15:13.000Z,19.64
2019-05-19T00:16:13.000Z,19.65
2019-05-19T00:17:13.000Z,19.64
2019-05-19T00:18:13.000Z,19.64
2019-05-19T00:19:13.000Z,19.64
2019-05-19T00:20:13.000Z,19.63
2019-05-19T00:21:13.000Z,19.64
2019-05-19T00:22:13.000Z,19.63
2019-05-19T00:23:13.000Z,19.64
2019-05-19T00:24:13.000Z,19.63
2019-05-19T00:25:13.000Z,19.63
2019-05-19T00:26:13.000Z,19.62
2019-05-19T00:27:13.000Z,19.62
2019-05-19T00:28:13.000Z,19.63
2019-05-19T00:29:13.000Z,19.62
2019-05-19T00:30:13.000Z,19.62
2019-05-19T00:31:13.000Z,19.61
2019-05-19T00:32:13.000Z,19.62
2019-05-19T00:33:13.000Z,19.61
2019-05-19T00:34:12.000Z,19.61
2019-05-19T00:35:12.000Z,19.61
2019-05-19T00:36:12.000Z,19.61
2019-05-19T00:37:12.000Z,19.61
2019-05-19T00:38:12.000Z,19.60
2019-05-19T00:39:12.000Z,19.61
2019-05-19T00:40:12.000Z,19.61
2019-05-19T00:41:12.000Z,19.60
2019-05-19T00:42:12.000Z,19.60
2019-05-19T00:43:12.000Z,19.60
2019-05-19T00:44:12.000Z,19.60
2019-05-19T00:45:13.000Z,19.60
2019-05-19T00:46:13.000Z,19.59
2019-05-19T00:47:13.000Z,19.59
2019-05-19T00:48:13.000Z,19.59
2019-05-19T00:49:13.000Z,19.58
2019-05-19T00:50:13.000Z,19.58
2019-05-19T00:51:12.000Z,19.58
2019-05-19T00:52:12.000Z,19.59
2019-05-19T00:53:12.000Z,19.58
2019-05-19T00:54:12.000Z,19.58
2019-05-19T00:55:12.000Z,19.58
2019-05-19T00:56:12.000Z,19.58
2019-05-19T00:57:12.000Z,19.58
2019-05-19T00:58:12.000Z,19.57
2019-05-19T00:59:12.000Z,19.56
2019-05-19T01:00:12.000Z,19.57
2019-05-19T01:01:12.000Z,19.57
2019-05-19T01:02:13.000Z,19.57
2019-05-19T01:03:12.000Z,19.57
2019-05-19T01:04:12.000Z,19.56
2019-05-19T01:05:12.000Z,19.57
2019-05-19T01:06:12.000Z,19.56
2019-05-19T01:07:12.000Z,19.57
2019-05-19T01:08:12.000Z,19.56
2019-05-19T01:09:12.000Z,19.57
2019-05-19T01:10:12.000Z,19.56
2019-05-19T01:11:12.000Z,19.55
2019-05-19T01:12:12.000Z,19.56
2019-05-19T01:13:12.000Z,19.56
2019-05-19T01:14:12.000Z,19.55
2019-05-19T01:15:12.000Z,19.54
2019-05-19T01:16:12.000Z,19.55
2019-05-19T01:17:12.000Z,19.55
2019-05-19T01:18:12.000Z,19.55
2019-05-19T01:19:12.000Z,19.55
2019-05-19T01:20:12.000Z,19.55
2019-05-19T01:21:12.000Z,19.54
2019-05-19T01:22:12.000Z,19.54
2019-05-19T01:23:12.000Z,19.53
2019-05-19T01:24:12.000Z,19.55
2019-05-19T01:25:13.000Z,19.54
2019-05-19T01:26:12.000Z,19.53
2019-05-19T01:27:12.000Z,19.54
2019-05-19T01:28:12.000Z,19.53
2019-05-19T01:29:12.000Z,19.54
2019-05-19T01:30:13.000Z,19.53
2019-05-19T01:31:12.000Z,19.53
2019-05-19T01:32:12.000Z,19.54
2019-05-19T01:33:12.000Z,19.53
2019-05-19T01:34:12.000Z,19.52
2019-05-19T01:35:12.000Z,19.53
2019-05-19T01:36:12.000Z,19.52
2019-05-19T01:37:12.000Z,19.52
2019-05-19T01:38:12.000Z,19.52
2019-05-19T01:39:12.000Z,19.52
2019-05-19T01:40:13.000Z,19.52
2019-05-19T01:41:12.000Z,19.51
2019-05-19T01:42:13.000Z,19.51
2019-05-19T01:43:12.000Z,19.51
2019-05-19T01:44:12.000Z,19.51
2019-05-19T01:45:12.000Z,19.51
2019-05-19T01:46:13.000Z,19.51
2019-05-19T01:47:13.000Z,19.51
2019-05-19T01:48:13.000Z,19.50
2019-05-19T01:49:12.000Z,19.51
2019-05-19T01:50:12.000Z,19.51
2019-05-19T01:51:12.000Z,19.50
2019-05-19T01:52:12.000Z,19.50
2019-05-19T01:53:12.000Z,19.50
2019-05-19T01:54:12.000Z,19.50
2019-05-19T01:55:12.000Z,19.50
2019-05-19T01:56:12.000Z,19.50
2019-05-19T01:57:12.000Z,19.50
2019-05-19T01:58:13.000Z,19.50
2019-05-19T01:59:12.000Z,19.48
2019-05-19T02:00:12.000Z,19.49
2019-05-19T02:01:12.000Z,19.49
2019-05-19T02:02:12.000Z,19.48
2019-05-19T02:03:12.000Z,19.48
2019-05-19T02:04:12.000Z,19.49
2019-05-19T02:05:12.000Z,19.49
2019-05-19T02:06:12.000Z,19.48
2019-05-19T02:07:12.000Z,19.49
2019-05-19T02:08:12.000Z,19.48
2019-05-19T02:09:12.000Z,19.48
2019-05-19T02:10:12.000Z,19.47
2019-05-19T02:11:13.000Z,19.48
2019-05-19T02:12:13.000Z,19.48
2019-05-19T02:13:12.000Z,19.48
2019-05-19T02:14:12.000Z,19.47
2019-05-19T02:15:12.000Z,19.48
2019-05-19T02:16:12.000Z,19.47
2019-05-19T02:17:12.000Z,19.47
2019-05-19T02:18:12.000Z,19.47
2019-05-19T02:19:12.000Z,19.46
2019-05-19T02:20:12.000Z,19.47
2019-05-19T02:21:12.000Z,19.46
2019-05-19T02:22:12.000Z,19.46
2019-05-19T02:23:12.000Z,19.46
2019-05-19T02:24:12.000Z,19.45
2019-05-19T02:25:12.000Z,19.45
2019-05-19T02:26:12.000Z,19.45
2019-05-19T02:27:12.000Z,19.46
2019-05-19T02:28:12.000Z,19.46
2019-05-19T02:29:12.000Z,19.45
2019-05-19T02:30:12.000Z,19.46
2019-05-19T02:31:12.000Z,19.46
2019-05-19T02:32:12.000Z,19.45
2019-05-19T02:33:12.000Z,19.45
2019-05-19T02:34:12.000Z,19.45
2019-05-19T02:35:12.000Z,19.44
2019-05-19T02:36:13.000Z,19.45
2019-05-19T02:37:13.000Z,19.44
2019-05-19T02:38:13.000Z,19.44
2019-05-19T02:39:13.000Z,19.44
2019-05-19T02:40:13.000Z,19.44
2019-05-19T02:41:13.000Z,19.44
2019-05-19T02:42:13.000Z,19.44
2019-05-19T02:43:13.000Z,19.44
2019-05-19T02:44:13.000Z,19.44
2019-05-19T02:45:13.000Z,19.44
2019-05-19T02:46:13.000Z,19.44
2019-05-19T02:47:13.000Z,19.42
2019-05-19T02:48:13.000Z,19.44
2019-05-19T02:49:13.000Z,19.43
2019-05-19T02:50:13.000Z,19.43
2019-05-19T02:51:13.000Z,19.43
2019-05-19T02:52:13.000Z,19.42
2019-05-19T02:53:13.000Z,19.42
2019-05-19T02:54:13.000Z,19.42
2019-05-19T02:55:13.000Z,19.42
2019-05-19T02:56:13.000Z,19.42
2019-05-19T02:57:13.000Z,19.42
2019-05-19T02:58:13.000Z,19.41
2019-05-19T02:59:13.000Z,19.42
2019-05-19T03:00:13.000Z,19.40
2019-05-19T03:01:13.000Z,19.41
2019-05-19T03:02:13.000Z,19.41
2019-05-19T03:03:13.000Z,19.41
2019-05-19T03:04:13.000Z,19.41
2019-05-19T03:05:13.000Z,19.41
2019-05-19T03:06:13.000Z,19.41
2019-05-19T03:07:13.000Z,19.40
2019-05-19T03:08:13.000Z,19.40
2019-05-19T03:09:13.000Z,19.40
2019-05-19T03:10:13.000Z,19.40
2019-05-19T03:11:13.000Z,19.40
2019-05-19T03:12:13.000Z,19.40
2019-05-19T03:13:13.000Z,19.40
2019-05-19T03:14:13.000Z,19.41
2019-05-19T03:15:13.000Z,19.40
2019-05-19T03:16:13.000Z,19.39
2019-05-19T03:17:13.000Z,19.40
2019-05-19T03:18:13.000Z,19.39
2019-05-19T03:19:13.000Z,19.39
2019-05-19T03:20:13.000Z,19.39
2019-05-19T03:21:13.000Z,19.39
2019-05-19T03:22:13.000Z,19.39
2019-05-19T03:23:13.000Z,19.40
2019-05-19T03:24:13.000Z,19.39
2019-05-19T03:25:13.000Z,19.38
2019-05-19T03:26:13.000Z,19.38
2019-05-19T03:27:13.000Z,19.39
2019-05-19T03:28:13.000Z,19.38
2019-05-19T03:29:13.000Z,19.38
2019-05-19T03:30:13.000Z,19.38
2019-05-19T03:31:13.000Z,19.38
2019-05-19T03:32:13.000Z,19.38
2019-05-19T03:33:13.000Z,19.37
2019-05-19T03:34:13.000Z,19.38
2019-05-19T03:35:13.000Z,19.38
2019-05-19T03:36:13.000Z,19.37
2019-05-19T03:37:12.000Z,19.38
2019-05-19T03:38:12.000Z,19.38
2019-05-19T03:39:12.000Z,19.38
2019-05-19T03:40:12.000Z,19.38
2019-05-19T03:41:12.000Z,19.39
2019-05-19T03:42:12.000Z,19.39
2019-05-19T03:43:12.000Z,19.39
2019-05-19T03:44:12.000Z,19.39
2019-05-19T03:45:12.000Z,19.39
2019-05-19T03:46:12.000Z,19.40
2019-05-19T03:47:12.000Z,19.40
2019-05-19T03:48:12.000Z,19.40
2019-05-19T03:49:12.000Z,19.41
2019-05-19T03:50:12.000Z,19.41
2019-05-19T03:51:12.000Z,19.43
2019-05-19T03:52:12.000Z,19.43
2019-05-19T03:53:12.000Z,19.43
2019-05-19T03:54:12.000Z,19.44
2019-05-19T03:55:12.000Z,19.45
2019-05-19T03:56:12.000Z,19.46
2019-05-19T03:57:12.000Z,19.46
2019-05-19T03:58:12.000Z,19.48
2019-05-19T03:59:12.000Z,19.48
2019-05-19T04:00:12.000Z,19.50
2019-05-19T04:01:12.000Z,19.51
2019-05-19T04:02:12.000Z,19.52
2019-05-19T04:03:12.000Z,19.53
2019-05-19T04:04:12.000Z,19.54
2019-05-19T04:05:12.000Z,19.55
2019-05-19T04:06:12.000Z,19.56
2019-05-19T04:07:12.000Z,19.57
2019-05-19T04:08:12.000Z,19.57
2019-05-19T04:09:12.000Z,19.60
2019-05-19T04:10:12.000Z,19.60
2019-05-19T04:11:12.000Z,19.61
2019-05-19T04:12:12.000Z,19.63
2019-05-19T04:13:12.000Z,19.64
2019-05-19T04:14:12.000Z,19.65
2019-05-19T04:15:12.000Z,19.67
2019-05-19T04:16:12.000Z,19.67
2019-05-19T04:17:12.000Z,19.69
2019-05-19T04:18:12.000Z,19.70
2019-05-19T04:19:12.000Z,19.71
2019-05-19T04:20:12.000Z,19.72
2019-05-19T04:21:12.000Z,19.73
2019-05-19T04:22:12.000Z,19.75
2019-05-19T04:23:12.000Z,19.76
2019-05-19T04:24:12.000Z,19.76
2019-05-19T04:25:12.000Z,19.80
2019-05-19T04:26:12.000Z,19.79
2019-05-19T04:27:12.000Z,19.81
2019-05-19T04:28:12.000Z,19.83
2019-05-19T04:29:12.000Z,19.83
2019-05-19T04:30:12.000Z,19.84
2019-05-19T04:31:12.000Z,19.86
2019-05-19T04:32:12.000Z,19.87
2019-05-19T04:33:12.000Z,19.88
2019-05-19T04:34:12.000Z,19.89
2019-05-19T04:35:12.000Z,19.90
2019-05-19T04:36:12.000Z,19.91
2019-05-19T04:37:12.000Z,19.92
2019-05-19T04:38:12.000Z,19.94
2019-05-19T04:39:13.000Z,19.94
2019-05-19T04:40:13.000Z,19.95
2019-05-19T04:41:13.000Z,19.96
2019-05-19T04:42:13.000Z,19.97
2019-05-19T04:43:13.000Z,20.00
2019-05-19T04:44:13.000Z,20.00
2019-05-19T04:45:13.000Z,20.01
2019-05-19T04:46:13.000Z,20.02
2019-05-19T04:47:13.000Z,20.03
2019-05-19T04:48:13.000Z,20.03
2019-05-19T04:49:13.000Z,20.03
2019-05-19T04:50:13.000Z,20.04
2019-05-19T04:51:13.000Z,20.05
2019-05-19T04:52:13.000Z,20.06
2019-05-19T04:53:13.000Z,20.08
2019-05-19T04:54:13.000Z,20.08
2019-05-19T04:55:13.000Z,20.09
2019-05-19T04:56:13.000Z,20.09
2019-05-19T04:57:13.000Z,20.11
2019-05-19T04:58:13.000Z,20.11
2019-05-19T04:59:13.000Z,20.12
2019-05-19T05:00:13.000Z,20.12
2019-05-19T05:01:13.000Z,20.12
2019-05-19T05:02:13.000Z,20.13
2019-05-19T05:03:13.000Z,20.14
2019-05-19T05:04:13.000Z,20.15
2019-05-19T05:05:13.000Z,20.16
2019-05-19T05:06:13.000Z,20.17
2019-05-19T05:07:13.000Z,20.17
2019-05-19T05:08:13.000Z,20.17
2019-05-19T05:09:12.000Z,20.18
2019-05-19T05:10:12.000Z,20.19
2019-05-19T05:11:12.000Z,20.20
2019-05-19T05:12:12.000Z,20.20
2019-05-19T05:13:12.000Z,20.21
2019-05-19T05:14:12.000Z,20.21
2019-05-19T05:15:12.000Z,20.22
2019-05-19T05:16:12.000Z,20.23
2019-05-19T05:17:12.000Z,20.23
2019-05-19T05:18:12.000Z,20.24
2019-05-19T05:19:12.000Z,20.25
2019-05-19T05:20:12.000Z,20.25
2019-05-19T05:21:12.000Z,20.26
2019-05-19T05:22:12.000Z,20.26
2019-05-19T05:23:12.000Z,20.27
2019-05-19T05:24:12.000Z,20.27
2019-05-19T05:25:12.000Z,20.28
2019-05-19T05:26:12.000Z,20.28
2019-05-19T05:27:12.000Z,20.29
2019-05-19T05:28:12.000Z,20.29
2019-05-19T05:29:12.000Z,20.29
2019-05-19T05:30:12.000Z,20.29
2019-05-19T05:31:12.000Z,20.30
2019-05-19T05:32:12.000Z,20.30
2019-05-19T05:33:12.000Z,20.31
2019-05-19T05:34:12.000Z,20.32
2019-05-19T05:35:12.000Z,20.31
2019-05-19T05:36:12.000Z,20.32
2019-05-19T05:37:12.000Z,20.33
2019-05-19T05:38:12.000Z,20.33
2019-05-19T05:39:12.000Z,20.33
2019-05-19T05:40:12.000Z,20.33
2019-05-19T05:41:12.000Z,20.32
2019-05-19T05:42:12.000Z,20.32
2019-05-19T05:43:12.000Z,20.33
2019-05-19T05:44:12.000Z,20.33
2019-05-19T05:45:12.000Z,20.32
2019-05-19T05:46:12.000Z,20.34
2019-05-19T05:47:12.000Z,20.34
2019-05-19T05:48:13.000Z,20.34
2019-05-19T05:49:12.000Z,20.34
2019-05-19T05:50:12.000Z,20.34
2019-05-19T05:51:12.000Z,20.34
2019-05-19T05:52:12.000Z,20.34
2019-05-19T05:53:13.000Z,20.35
2019-05-19T05:54:13.000Z,20.35
2019-05-19T05:55:12.000Z,20.34
2019-05-19T05:56:12.000Z,20.36
2019-05-19T05:57:12.000Z,20.35
2019-05-19T05:58:12.000Z,20.36
2019-05-19T05:59:12.000Z,20.36
2019-05-19T06:00:12.000Z,20.37
2019-05-19T06:01:12.000Z,20.37
2019-05-19T06:02:12.000Z,20.37
2019-05-19T06:03:12.000Z,20.37
2019-05-19T06:04:12.000Z,20.37
2019-05-19T06:05:12.000Z,20.38
2019-05-19T06:06:12.000Z,20.37
2019-05-19T06:07:12.000Z,20.38
2019-05-19T06:08:12.000Z,20.38
2019-05-19T06:09:12.000Z,20.39
2019-05-19T06:10:12.000Z,20.39
2019-05-19T06:11:12.000Z,20.40
2019-05-19T06:12:12.000Z,20.40
2019-05-19T06:13:12.000Z,20.40
2019-05-19T06:14:12.000Z,20.41
2019-05-19T06:15:12.000Z,20.41
2019-05-19T06:16:12.000Z,20.42
2019-05-19T06:17:12.000Z,20.41
2019-05-19T06:18:12.000Z,20.42
2019-05-19T06:19:12.000Z,20.41
2019-05-19T06:20:12.000Z,20.42
2019-05-19T06:21:12.000Z,20.44
2019-05-19T06:22:12.000Z,20.43
2019-05-19T06:23:12.000Z,20.43
2019-05-19T06:24:12.000Z,20.43
2019-05-19T06:25:12.000Z,20.44
2019-05-19T06:26:12.000Z,20.44
2019-05-19T06:27:12.000Z,20.44
2019-05-19T06:28:12.000Z,20.44
2019-05-19T06:29:12.000Z,20.45
2019-05-19T06:30:12.000Z,20.46
2019-05-19T06:31:13.000Z,20.45
2019-05-19T06:32:12.000Z,20.45
2019-05-19T06:33:12.000Z,20.46
2019-05-19T06:34:12.000Z,20.46
2019-05-19T06:35:12.000Z,20.47
2019-05-19T06:36:12.000Z,20.47
2019-05-19T06:37:12.000Z,20.47
2019-05-19T06:38:12.000Z,20.47
2019-05-19T06:39:12.000Z,20.49
2019-05-19T06:40:12.000Z,20.49
2019-05-19T06:41:12.000Z,20.49
2019-05-19T06:42:12.000Z,20.50
2019-05-19T06:43:12.000Z,20.50
2019-05-19T06:44:12.000Z,20.49
2019-05-19T06:45:12.000Z,20.50
2019-05-19T06:46:12.000Z,20.50
2019-05-19T06:47:12.000Z,20.52
2019-05-19T06:48:12.000Z,20.51
2019-05-19T06:49:12.000Z,20.51
2019-05-19T06:50:13.000Z,20.51
2019-05-19T06:51:12.000Z,20.52
2019-05-19T06:52:13.000Z,20.52
2019-05-19T06:53:13.000Z,20.53
2019-05-19T06:54:12.000Z,20.52
2019-05-19T06:55:12.000Z,20.53
2019-05-19T06:56:12.000Z,20.54
2019-05-19T06:57:12.000Z,20.54
2019-05-19T06:58:12.000Z,20.54
2019-05-19T06:59:12.000Z,20.55
2019-05-19T07:00:12.000Z,20.55
2019-05-19T07:01:12.000Z,20.54
2019-05-19T07:02:12.000Z,20.55
2019-05-19T07:03:12.000Z,20.56
2019-05-19T07:04:13.000Z,20.56
2019-05-19T07:05:12.000Z,20.57
2019-05-19T07:06:13.000Z,20.57
2019-05-19T07:07:13.000Z,20.56
2019-05-19T07:08:13.000Z,20.57
2019-05-19T07:09:13.000Z,20.57
2019-05-19T07:10:13.000Z,20.57
2019-05-19T07:11:12.000Z,20.57
2019-05-19T07:12:12.000Z,20.58
2019-05-19T07:13:12.000Z,20.58
2019-05-19T07:14:12.000Z,20.58
2019-05-19T07:15:12.000Z,20.58
2019-05-19T07:16:12.000Z,20.59
2019-05-19T07:17:12.000Z,20.59
2019-05-19T07:18:12.000Z,20.60
2019-05-19T07:19:12.000Z,20.59
2019-05-19T07:20:12.000Z,20.59
2019-05-19T07:21:12.000Z,20.60
2019-05-19T07:22:12.000Z,20.60
2019-05-19T07:23:12.000Z,20.60
2019-05-19T07:24:12.000Z,20.60
2019-05-19T07:25:12.000Z,20.61
2019-05-19T07:26:12.000Z,20.61
2019-05-19T07:27:12.000Z,20.61
2019-05-19T07:28:12.000Z,20.61
2019-05-19T07:29:12.000Z,20.62
2019-05-19T07:30:12.000Z,20.61
2019-05-19T07:31:12.000Z,20.62
2019-05-19T07:32:12.000Z,20.63
2019-05-19T07:33:12.000Z,20.62
2019-05-19T07:34:12.000Z,20.63
2019-05-19T07:35:12.000Z,20.63
2019-05-19T07:36:12.000Z,20.63
2019-05-19T07:37:12.000Z,20.63
2019-05-19T07:38:12.000Z,20.63
2019-05-19T07:39:12.000Z,20.65
2019-05-19T07:40:12.000Z,20.64
2019-05-19T07:41:12.000Z,20.65
2019-05-19T07:42:13.000Z,20.66
2019-05-19T07:43:12.000Z,20.64
2019-05-19T07:44:12.000Z,20.65
2019-05-19T07:45:12.000Z,20.64
2019-05-19T07:46:12.000Z,20.65
2019-05-19T07:47:12.000Z,20.66
2019-05-19T07:48:12.000Z,20.66
2019-05-19T07:49:12.000Z,20.67
2019-05-19T07:50:12.000Z,20.66
2019-05-19T07:51:12.000Z,20.67
2019-05-19T07:52:13.000Z,20.66
2019-05-19T07:53:12.000Z,20.66
2019-05-19T07:54:12.000Z,20.67
2019-05-19T07:55:13.000Z,20.68
2019-05-19T07:56:13.000Z,20.67
2019-05-19T07:57:13.000Z,20.68
2019-05-19T07:58:12.000Z,20.68
2019-05-19T07:59:13.000Z,20.69
2019-05-19T08:00:13.000Z,20.68
2019-05-19T08:01:13.000Z,20.69
2019-05-19T08:02:13.000Z,20.68
2019-05-19T08:03:13.000Z,20.68
2019-05-19T08:04:13.000Z,20.69
2019-05-19T08:05:13.000Z,20.68
2019-05-19T08:06:12.000Z,20.70
2019-05-19T08:07:12.000Z,20.68
2019-05-19T08:08:12.000Z,20.66
2019-05-19T08:09:12.000Z,20.62
2019-05-19T08:10:12.000Z,20.63
2019-05-19T08:11:12.000Z,20.62
2019-05-19T08:12:13.000Z,20.63
2019-05-19T08:13:13.000Z,20.64
2019-05-19T08:14:13.000Z,20.64
2019-05-19T08:15:13.000Z,20.64
2019-05-19T08:16:13.000Z,20.66
2019-05-19T08:17:14.000Z,20.65
2019-05-19T08:18:13.000Z,20.67
2019-05-19T08:19:13.000Z,20.68
2019-05-19T08:20:13.000Z,20.70
2019-05-19T08:21:13.000Z,20.71
2019-05-19T08:22:13.000Z,20.72
2019-05-19T08:23:13.000Z,20.73
2019-05-19T08:24:13.000Z,20.73
2019-05-19T08:25:13.000Z,20.74
2019-05-19T08:26:13.000Z,20.76
2019-05-19T08:27:13.000Z,20.76
2019-05-19T08:28:13.000Z,20.77
2019-05-19T08:29:13.000Z,20.76
2019-05-19T08:30:13.000Z,20.76
2019-05-19T08:31:13.000Z,20.76
2019-05-19T08:32:13.000Z,20.76
2019-05-19T08:33:13.000Z,20.76
2019-05-19T08:34:13.000Z,20.75
2019-05-19T08:35:13.000Z,20.76
2019-05-19T08:36:13.000Z,20.74
2019-05-19T08:37:13.000Z,20.74
2019-05-19T08:38:13.000Z,20.75
2019-05-19T08:39:13.000Z,20.74
2019-05-19T08:40:13.000Z,20.74
2019-05-19T08:41:13.000Z,20.75
2019-05-19T08:42:14.000Z,20.74
2019-05-19T08:43:12.000Z,20.74
2019-05-19T08:44:12.000Z,20.74
2019-05-19T08:45:12.000Z,20.74
2019-05-19T08:46:12.000Z,20.74
2019-05-19T08:47:14.000Z,20.73
2019-05-19T08:48:12.000Z,20.73
2019-05-19T08:49:12.000Z,20.73
2019-05-19T08:50:13.000Z,20.73
2019-05-19T08:51:12.000Z,20.73
2019-05-19T08:52:12.000Z,20.73
2019-05-19T08:53:12.000Z,20.72
2019-05-19T08:54:12.000Z,20.72
2019-05-19T08:55:12.000Z,20.71
2019-05-19T08:56:12.000Z,20.72
2019-05-19T08:57:12.000Z,20.72
2019-05-19T08:58:12.000Z,20.71
2019-05-19T08:59:12.000Z,20.71
2019-05-19T09:00:12.000Z,20.71
2019-05-19T09:01:12.000Z,20.70
2019-05-19T09:02:12.000Z,20.70
2019-05-19T09:03:12.000Z,20.70
2019-05-19T09:04:12.000Z,20.69
2019-05-19T09:05:12.000Z,20.70
2019-05-19T09:06:12.000Z,20.71
2019-05-19T09:07:12.000Z,20.70
2019-05-19T09:08:13.000Z,20.70
2019-05-19T09:09:13.000Z,20.70
2019-05-19T09:10:12.000Z,20.71
2019-05-19T09:11:12.000Z,20.71
2019-05-19T09:12:12.000Z,20.72
2019-05-19T09:13:12.000Z,20.71
2019-05-19T09:14:12.000Z,20.72
2019-05-19T09:15:12.000Z,20.72
2019-05-19T09:16:12.000Z,20.71
2019-05-19T09:17:12.000Z,20.72
2019-05-19T09:18:12.000Z,20.71
2019-05-19T09:19:12.000Z,20.71
2019-05-19T09:20:12.000Z,20.71
2019-05-19T09:21:12.000Z,20.70
2019-05-19T09:22:12.000Z,20.71
2019-05-19T09:23:12.000Z,20.70
2019-05-19T09:24:12.000Z,20.71
2019-05-19T09:25:12.000Z,20.70
2019-05-19T09:26:12.000Z,20.70
2019-05-19T09:27:12.000Z,20.70
2019-05-19T09:28:12.000Z,20.71
2019-05-19T09:29:12.000Z,20.70
2019-05-19T09:30:12.000Z,20.70
2019-05-19T09:31:12.000Z,20.69
2019-05-19T09:32:12.000Z,20.69
2019-05-19T09:33:12.000Z,20.70
2019-05-19T09:34:12.000Z,20.69
2019-05-19T09:35:12.000Z,20.70
2019-05-19T09:36:12.000Z,20.71
2019-05-19T09:37:12.000Z,20.71
2019-05-19T09:38:12.000Z,20.71
2019-05-19T09:39:12.000Z,20.71
2019-05-19T09:40:12.000Z,20.70
2019-05-19T09:41:12.000Z,20.70
2019-05-19T09:42:12.000Z,20.70
2019-05-19T09:43:12.000Z,20.71
2019-05-19T09:44:12.000Z,20.71
2019-05-19T09:45:12.000Z,20.71
2019-05-19T09:46:12.000Z,20.71
2019-05-19T09:47:12.000Z,20.71
2019-05-19T09:48:13.000Z,20.71
2019-05-19T09:49:12.000Z,20.71
2019-05-19T09:50:12.000Z,20.71
2019-05-19T09:51:12.000Z,20.71
2019-05-19T09:52:12.000Z,20.71
2019-05-19T09:53:12.000Z,20.72
2019-05-19T09:54:12.000Z,20.72
2019-05-19T09:55:12.000Z,20.72
2019-05-19T09:56:13.000Z,20.72
2019-05-19T09:57:12.000Z,20.72
2019-05-19T09:58:12.000Z,20.72
2019-05-19T09:59:12.000Z,20.72
2019-05-19T10:00:12.000Z,20.72
2019-05-19T10:01:12.000Z,20.72
2019-05-19T10:02:13.000Z,20.72
2019-05-19T10:03:12.000Z,20.72
2019-05-19T10:04:12.000Z,20.72
2019-05-19T10:05:12.000Z,20.72
2019-05-19T10:06:12.000Z,20.71
2019-05-19T10:07:12.000Z,20.71
2019-05-19T10:08:12.000Z,20.72
2019-05-19T10:09:12.000Z,20.72
2019-05-19T10:10:12.000Z,20.71
2019-05-19T10:11:12.000Z,20.71
2019-05-19T10:12:12.000Z,20.71
2019-05-19T10:13:12.000Z,20.71
2019-05-19T10:14:12.000Z,20.70
2019-05-19T10:15:12.000Z,20.71
2019-05-19T10:16:12.000Z,20.70
2019-05-19T10:17:12.000Z,20.69
2019-05-19T10:18:12.000Z,20.70
2019-05-19T10:19:12.000Z,20.71
2019-05-19T10:20:12.000Z,20.71
2019-05-19T10:21:12.000Z,20.71
2019-05-19T10:22:12.000Z,20.70
2019-05-19T10:23:12.000Z,20.71
2019-05-19T10:24:12.000Z,20.70
2019-05-19T10:25:12.000Z,20.70
2019-05-19T10:26:12.000Z,20.70
2019-05-19T10:27:12.000Z,20.71
2019-05-19T10:28:12.000Z,20.70
2019-05-19T10:29:12.000Z,20.70
2019-05-19T10:30:12.000Z,20.70
2019-05-19T10:31:12.000Z,20.69
2019-05-19T10:32:12.000Z,20.69
2019-05-19T10:33:12.000Z,20.69
2019-05-19T10:34:13.000Z,20.69
2019-05-19T10:35:13.000Z,20.70
2019-05-19T10:36:12.000Z,20.69
2019-05-19T10:37:12.000Z,20.69
2019-05-19T10:38:12.000Z,20.69
2019-05-19T10:39:12.000Z,20.68
2019-05-19T10:40:12.000Z,20.69
2019-05-19T10:41:12.000Z,20.68
2019-05-19T10:42:12.000Z,20.67
2019-05-19T10:43:12.000Z,20.67
2019-05-19T10:44:12.000Z,20.67
2019-05-19T10:45:12.000Z,20.66
2019-05-19T10:46:12.000Z,20.65
2019-05-19T10:47:12.000Z,20.65
2019-05-19T10:48:12.000Z,20.63
2019-05-19T10:49:12.000Z,20.64
2019-05-19T10:50:12.000Z,20.62
2019-05-19T10:51:12.000Z,20.62
2019-05-19T10:52:12.000Z,20.62
2019-05-19T10:53:12.000Z,20.62
2019-05-19T10:54:12.000Z,20.61
2019-05-19T10:55:12.000Z,20.61
2019-05-19T10:56:12.000Z,20.60
2019-05-19T10:57:12.000Z,20.60
2019-05-19T10:58:12.000Z,20.59
2019-05-19T10:59:12.000Z,20.59
2019-05-19T11:00:12.000Z,20.58
2019-05-19T11:01:12.000Z,20.58
2019-05-19T11:02:12.000Z,20.58
2019-05-19T11:03:12.000Z,20.57
2019-05-19T11:04:12.000Z,20.56
2019-05-19T11:05:12.000Z,20.57
2019-05-19T11:06:12.000Z,20.56
2019-05-19T11:07:12.000Z,20.55
2019-05-19T11:08:12.000Z,20.55
2019-05-19T11:09:12.000Z,20.55
2019-05-19T11:10:12.000Z,20.55
2019-05-19T11:11:12.000Z,20.55
2019-05-19T11:12:12.000Z,20.55
2019-05-19T11:13:12.000Z,20.55
2019-05-19T11:14:12.000Z,20.53
2019-05-19T11:15:12.000Z,20.54
2019-05-19T11:16:12.000Z,20.54
2019-05-19T11:17:12.000Z,20.54
2019-05-19T11:18:12.000Z,20.54
2019-05-19T11:19:12.000Z,20.54
2019-05-19T11:20:12.000Z,20.54
2019-05-19T11:21:12.000Z,20.54
2019-05-19T11:22:12.000Z,20.54
2019-05-19T11:23:12.000Z,20.54
2019-05-19T11:24:12.000Z,20.54
2019-05-19T11:25:12.000Z,20.53
2019-05-19T11:26:12.000Z,20.53
2019-05-19T11:27:12.000Z,20.53
2019-05-19T11:28:12.000Z,20.53
2019-05-19T11:29:12.000Z,20.52
2019-05-19T11:30:12.000Z,20.53
2019-05-19T11:31:12.000Z,20.54
2019-05-19T11:32:12.000Z,20.54
2019-05-19T11:33:12.000Z,20.54
2019-05-19T11:34:12.000Z,20.53
2019-05-19T11:35:12.000Z,20.54
2019-05-19T11:36:12.000Z,20.54
2019-05-19T11:37:12.000Z,20.53
2019-05-19T11:38:12.000Z,20.52
2019-05-19T11:39:12.000Z,20.53
2019-05-19T11:40:13.000Z,20.53
2019-05-19T11:41:12.000Z,20.53
2019-05-19T11:42:12.000Z,20.53
2019-05-19T11:43:12.000Z,20.53
2019-05-19T11:44:12.000Z,20.53
2019-05-19T11:45:12.000Z,20.53
2019-05-19T11:46:12.000Z,20.55
2019-05-19T11:47:12.000Z,20.54
2019-05-19T11:48:12.000Z,20.54
2019-05-19T11:49:12.000Z,20.54
2019-05-19T11:50:12.000Z,20.53
2019-05-19T11:51:13.000Z,20.53
2019-05-19T11:52:13.000Z,20.53
2019-05-19T11:53:12.000Z,20.52
2019-05-19T11:54:12.000Z,20.52
2019-05-19T11:55:12.000Z,20.52
2019-05-19T11:56:13.000Z,20.51
2019-05-19T11:57:13.000Z,20.51
2019-05-19T11:58:13.000Z,20.51
2019-05-19T11:59:13.000Z,20.49
2019-05-19T12:00:13.000Z,20.51
2019-05-19T12:01:13.000Z,20.50
2019-05-19T12:02:13.000Z,20.49
2019-05-19T12:03:12.000Z,20.49
2019-05-19T12:04:13.000Z,20.49
2019-05-19T12:05:12.000Z,20.48
2019-05-19T12:06:12.000Z,20.48
2019-05-19T12:07:12.000Z,20.47
2019-05-19T12:08:12.000Z,20.48
2019-05-19T12:09:12.000Z,20.47
2019-05-19T12:10:12.000Z,20.46
2019-05-19T12:11:13.000Z,20.46
2019-05-19T12:12:13.000Z,20.45
2019-05-19T12:13:13.000Z,20.44
2019-05-19T12:14:13.000Z,20.45
2019-05-19T12:15:13.000Z,20.45
2019-05-19T12:16:12.000Z,20.46
2019-05-19T12:17:12.000Z,20.45
2019-05-19T12:18:12.000Z,20.45
2019-05-19T12:19:12.000Z,20.45
2019-05-19T12:20:12.000Z,20.44
2019-05-19T12:21:13.000Z,20.45
2019-05-19T12:22:12.000Z,20.45
2019-05-19T12:23:12.000Z,20.45
2019-05-19T12:24:12.000Z,20.45
2019-05-19T12:25:12.000Z,20.45
2019-05-19T12:26:12.000Z,20.47
2019-05-19T12:27:12.000Z,20.45
2019-05-19T12:28:12.000Z,20.45
2019-05-19T12:29:12.000Z,20.45
2019-05-19T12:30:12.000Z,20.44
2019-05-19T12:31:12.000Z,20.45
2019-05-19T12:32:12.000Z,20.44
2019-05-19T12:33:12.000Z,20.44
2019-05-19T12:34:12.000Z,20.43
2019-05-19T12:35:12.000Z,20.43
2019-05-19T12:36:12.000Z,20.43
2019-05-19T12:37:12.000Z,20.43
2019-05-19T12:38:12.000Z,20.42
2019-05-19T12:39:12.000Z,20.41
2019-05-19T12:40:12.000Z,20.40
2019-05-19T12:41:12.000Z,20.41
2019-05-19T12:42:12.000Z,20.40
2019-05-19T12:43:12.000Z,20.40
2019-05-19T12:44:12.000Z,20.40
2019-05-19T12:45:12.000Z,20.40
2019-05-19T12:46:12.000Z,20.39
2019-05-19T12:47:12.000Z,20.39
2019-05-19T12:48:12.000Z,20.40
2019-05-19T12:49:12.000Z,20.39
2019-05-19T12:50:12.000Z,20.38
2019-05-19T12:51:12.000Z,20.38
2019-05-19T12:52:12.000Z,20.37